Oak Hammock Air Park

CAV9 · 曼尼托巴, 加拿大

罗盘
风向 的 风向 310°
风: 9 kt, 3 beaufort

添加一条跑道以查看侧风和逆风信息。

添置 跑道
0 ft 6.000 12.000 18.000 24.000 30.000
Cloud Cloud
FEW 25.000
METAR CYWG 021400Z 31009KT 15SM FEW250 M31/M35 A3044 RMK CI1 CI TR SLP341

METAR Oak Hammock Air Park - CAV9

Oak Hammock Air Park是,加拿大中的小机场。 视场标高为755 ft。 该领域的国际民航组织标志是CAV9.

这份报告是针对2023年2月2日 08:00, 当地时间在Winnipeg / James Armstrong Richardson International Airport进行的。

机场观察

风向为310°,速度为9 kt。

可见度为15 mi。

有几云在25.000 ft的高度。 没有观察到天花板。

温度为-31 °C,阵风为-47 °C。 露点为-35 °C,相对湿度为68%。 海平面上的气压为30,44 inHg (QNH)。

白天

今天,太阳从08:00升起,在17:23降落。 这适用于Oak Hammock Air Park,世界夏令时可能有所不同。 当地时间与世界标准时间之间的时差为-6 小时。 当前,没有夏令时有效。

公司介绍

我们没有关于这个机场的公司信息。

体会

到Vliegles.nl去找飞行课程,跳伞和其他飞行体验。 浏览页面,了解Oak Hammock Air Park附近所有可用的活动。 你也可以使用搜索功能来寻找你所在地附近的特定飞行课程、跳伞或其他飞行体验。

乌云

25.000 ft FEW 几云

温度 & 天气

温度 -31 °C
露点 -35 °C
相对湿度 68%
风寒 -47 °C
Kp-index 0 (0-9)

评论

SLP341海平面压力为30,54 inHg (30,54 inHg)
CI1 CI TR

白天

日出
08:00
中午
12:42
日落
17:24 (8:14)

小工具

你想在你的网站上有一个关于Oak Hammock Air Park的当前航空天气(METAR)的小部件吗?

显示HTML代码

我们和第三方通过cookies跟踪您在我们网站上的互联网行为。如果你继续,我们认为你同意我们的饼干政策